sensor_id;sensor_type;location;lat;lon;timestamp;pressure;altitude;pressure_sealevel;temperature;humidity
82728;BME280;72459;50.110;8.750;2023-11-19T00:00:50;100459.13;;;7.75;93.56
82728;BME280;72459;50.110;8.750;2023-11-19T00:03:16;100453.91;;;7.75;93.97
82728;BME280;72459;50.110;8.750;2023-11-19T00:05:43;100458.16;;;7.73;93.87
82728;BME280;72459;50.110;8.750;2023-11-19T00:08:09;100446.06;;;7.75;93.59
82728;BME280;72459;50.110;8.750;2023-11-19T00:10:35;100445.22;;;7.76;93.28
82728;BME280;72459;50.110;8.750;2023-11-19T00:13:00;100436.56;;;7.77;93.13
82728;BME280;72459;50.110;8.750;2023-11-19T00:15:28;100428.56;;;8.10;92.93
82728;BME280;72459;50.110;8.750;2023-11-19T00:17:53;100447.94;;;7.95;92.30
82728;BME280;72459;50.110;8.750;2023-11-19T00:20:20;100434.84;;;7.95;93.38
82728;BME280;72459;50.110;8.750;2023-11-19T00:22:48;100433.75;;;7.90;93.35
82728;BME280;72459;50.110;8.750;2023-11-19T00:25:19;100446.28;;;7.98;93.38
82728;BME280;72459;50.110;8.750;2023-11-19T00:27:45;100451.38;;;7.94;92.91
82728;BME280;72459;50.110;8.750;2023-11-19T00:30:11;100453.91;;;7.93;92.75
82728;BME280;72459;50.110;8.750;2023-11-19T00:32:37;100454.75;;;7.92;93.05
82728;BME280;72459;50.110;8.750;2023-11-19T00:35:07;100441.59;;;7.90;92.67
82728;BME280;72459;50.110;8.750;2023-11-19T00:37:32;100437.53;;;7.97;93.79
82728;BME280;72459;50.110;8.750;2023-11-19T00:39:59;100441.66;;;7.92;93.28
82728;BME280;72459;50.110;8.750;2023-11-19T00:42:29;100423.28;;;7.90;92.40
82728;BME280;72459;50.110;8.750;2023-11-19T00:44:54;100425.34;;;7.98;94.18
82728;BME280;72459;50.110;8.750;2023-11-19T00:47:20;100423.41;;;7.93;93.09
82728;BME280;72459;50.110;8.750;2023-11-19T00:49:48;100426.03;;;7.93;93.79
82728;BME280;72459;50.110;8.750;2023-11-19T00:52:14;100411.38;;;7.97;93.50
82728;BME280;72459;50.110;8.750;2023-11-19T00:54:42;100414.88;;;7.98;93.49
82728;BME280;72459;50.110;8.750;2023-11-19T00:57:08;100414.13;;;8.00;93.94
82728;BME280;72459;50.110;8.750;2023-11-19T00:59:33;100418.47;;;8.00;93.52
82728;BME280;72459;50.110;8.750;2023-11-19T01:01:58;100408.16;;;8.03;93.56
82728;BME280;72459;50.110;8.750;2023-11-19T01:04:35;100408.16;;;8.03;92.62
82728;BME280;72459;50.110;8.750;2023-11-19T01:07:02;100390.78;;;8.05;92.85
82728;BME280;72459;50.110;8.750;2023-11-19T01:09:29;100389.84;;;8.03;94.00
82728;BME280;72459;50.110;8.750;2023-11-19T01:11:57;100385.56;;;8.05;93.40
82728;BME280;72459;50.110;8.750;2023-11-19T01:14:23;100387.06;;;8.00;93.35
82728;BME280;72459;50.110;8.750;2023-11-19T01:16:48;100390.66;;;8.02;93.54
82728;BME280;72459;50.110;8.750;2023-11-19T01:19:14;100384.81;;;8.07;94.67
82728;BME280;72459;50.110;8.750;2023-11-19T01:21:39;100384.81;;;8.07;93.75
82728;BME280;72459;50.110;8.750;2023-11-19T01:24:05;100373.44;;;8.07;93.83
82728;BME280;72459;50.110;8.750;2023-11-19T01:26:34;100369.19;;;8.09;93.60
82728;BME280;72459;50.110;8.750;2023-11-19T01:29:00;100354.03;;;8.02;93.72
82728;BME280;72459;50.110;8.750;2023-11-19T01:31:26;100347.19;;;8.05;93.57
82728;BME280;72459;50.110;8.750;2023-11-19T01:33:51;100363.88;;;8.07;94.71
82728;BME280;72459;50.110;8.750;2023-11-19T01:36:17;100380.47;;;8.08;94.16
82728;BME280;72459;50.110;8.750;2023-11-19T01:38:43;100385.78;;;8.09;94.06
82728;BME280;72459;50.110;8.750;2023-11-19T01:41:09;100399.75;;;8.10;93.55
82728;BME280;72459;50.110;8.750;2023-11-19T01:43:36;100384.94;;;8.10;93.97
82728;BME280;72459;50.110;8.750;2023-11-19T01:46:04;100379.09;;;8.16;94.85
82728;BME280;72459;50.110;8.750;2023-11-19T01:48:31;100372.97;;;8.15;93.35
82728;BME280;72459;50.110;8.750;2023-11-19T01:50:58;100377.44;;;8.18;94.13
82728;BME280;72459;50.110;8.750;2023-11-19T01:53:24;100380.06;;;8.18;93.68
82728;BME280;72459;50.110;8.750;2023-11-19T01:55:50;100370.69;;;8.23;93.90
82728;BME280;72459;50.110;8.750;2023-11-19T01:58:16;100378.56;;;8.23;93.24
82728;BME280;72459;50.110;8.750;2023-11-19T02:00:43;100370.00;;;8.27;94.27
82728;BME280;72459;50.110;8.750;2023-11-19T02:03:09;100368.22;;;8.26;93.86
82728;BME280;72459;50.110;8.750;2023-11-19T02:05:35;100355.28;;;8.29;94.21
82728;BME280;72459;50.110;8.750;2023-11-19T02:08:01;100357.22;;;8.33;94.37
82728;BME280;72459;50.110;8.750;2023-11-19T02:10:26;100344.94;;;8.32;93.90
82728;BME280;72459;50.110;8.750;2023-11-19T02:12:52;100346.00;;;8.36;94.50
82728;BME280;72459;50.110;8.750;2023-11-19T02:15:18;100344.22;;;8.35;94.65
82728;BME280;72459;50.110;8.750;2023-11-19T02:17:51;100340.97;;;8.40;93.69
82728;BME280;72459;50.110;8.750;2023-11-19T02:20:17;100329.53;;;8.38;93.40
82728;BME280;72459;50.110;8.750;2023-11-19T02:22:45;100328.00;;;8.43;94.71
82728;BME280;72459;50.110;8.750;2023-11-19T02:25:17;100319.19;;;8.41;93.80
82728;BME280;72459;50.110;8.750;2023-11-19T02:30:22;100318.53;;;8.45;94.18
82728;BME280;72459;50.110;8.750;2023-11-19T02:33:02;100323.97;;;8.50;94.45
82728;BME280;72459;50.110;8.750;2023-11-19T02:35:31;100331.91;;;8.51;94.25
82728;BME280;72459;50.110;8.750;2023-11-19T02:37:58;100332.78;;;8.52;93.92
82728;BME280;72459;50.110;8.750;2023-11-19T02:40:27;100332.84;;;8.53;93.61
82728;BME280;72459;50.110;8.750;2023-11-19T02:42:53;100329.34;;;8.53;93.50
82728;BME280;72459;50.110;8.750;2023-11-19T02:45:20;100326.94;;;8.57;94.69
82728;BME280;72459;50.110;8.750;2023-11-19T02:47:47;100318.25;;;8.58;93.85
82728;BME280;72459;50.110;8.750;2023-11-19T02:50:12;100311.47;;;8.64;92.77
82728;BME280;72459;50.110;8.750;2023-11-19T02:52:42;100304.38;;;8.61;93.59
82728;BME280;72459;50.110;8.750;2023-11-19T02:55:08;100297.66;;;8.68;94.66
82728;BME280;72459;50.110;8.750;2023-11-19T02:57:43;100310.78;;;8.68;94.44
82728;BME280;72459;50.110;8.750;2023-11-19T03:00:17;100310.78;;;8.68;93.53
82728;BME280;72459;50.110;8.750;2023-11-19T03:02:44;100315.19;;;8.69;93.57
82728;BME280;72459;50.110;8.750;2023-11-19T03:05:29;100306.63;;;8.73;93.00
82728;BME280;72459;50.110;8.750;2023-11-19T03:07:55;100308.22;;;8.69;93.05
82728;BME280;72459;50.110;8.750;2023-11-19T03:10:22;100307.66;;;8.76;94.16
82728;BME280;72459;50.110;8.750;2023-11-19T03:12:47;100294.34;;;8.72;93.07
82728;BME280;72459;50.110;8.750;2023-11-19T03:15:13;100292.81;;;8.77;94.78
82728;BME280;72459;50.110;8.750;2023-11-19T03:17:41;100275.31;;;8.76;93.82
82728;BME280;72459;50.110;8.750;2023-11-19T03:20:09;100284.97;;;8.77;94.39
82728;BME280;72459;50.110;8.750;2023-11-19T03:22:36;100279.84;;;8.80;95.03
82728;BME280;72459;50.110;8.750;2023-11-19T03:25:02;100276.47;;;8.82;94.62
82728;BME280;72459;50.110;8.750;2023-11-19T03:27:28;100285.97;;;8.80;94.14
82728;BME280;72459;50.110;8.750;2023-11-19T03:29:53;100279.97;;;8.83;94.40
82728;BME280;72459;50.110;8.750;2023-11-19T03:32:19;100277.28;;;8.81;93.51
82728;BME280;72459;50.110;8.750;2023-11-19T03:34:45;100276.47;;;8.82;94.40
82728;BME280;72459;50.110;8.750;2023-11-19T03:37:10;100285.22;;;8.83;94.08
82728;BME280;72459;50.110;8.750;2023-11-19T03:39:35;100288.03;;;8.87;94.68
82728;BME280;72459;50.110;8.750;2023-11-19T03:42:01;100289.56;;;8.82;94.80
82728;BME280;72459;50.110;8.750;2023-11-19T03:44:29;100281.81;;;8.85;94.82
82728;BME280;72459;50.110;8.750;2023-11-19T03:46:55;100280.03;;;8.84;94.15
82728;BME280;72459;50.110;8.750;2023-11-19T03:49:21;100282.59;;;8.83;94.47
82728;BME280;72459;50.110;8.750;2023-11-19T03:51:46;100279.16;;;8.84;95.11
82728;BME280;72459;50.110;8.750;2023-11-19T03:54:12;100274.81;;;8.84;94.68
82728;BME280;72459;50.110;8.750;2023-11-19T03:56:37;100295.06;;;8.88;94.96
82728;BME280;72459;50.110;8.750;2023-11-19T03:59:03;100284.50;;;8.87;94.70
82728;BME280;72459;50.110;8.750;2023-11-19T04:01:32;100288.94;;;8.88;95.21
82728;BME280;72459;50.110;8.750;2023-11-19T04:03:57;100272.38;;;8.89;94.41
82728;BME280;72459;50.110;8.750;2023-11-19T04:06:23;100282.16;;;8.93;95.06
82728;BME280;72459;50.110;8.750;2023-11-19T04:08:48;100277.81;;;8.94;95.06
82728;BME280;72459;50.110;8.750;2023-11-19T04:11:14;100276.25;;;8.99;95.59
82728;BME280;72459;50.110;8.750;2023-11-19T04:13:40;100276.31;;;9.00;95.44
82728;BME280;72459;50.110;8.750;2023-11-19T04:16:05;100277.81;;;8.94;94.41
82728;BME280;72459;50.110;8.750;2023-11-19T04:18:31;100259.56;;;8.97;94.47
82728;BME280;72459;50.110;8.750;2023-11-19T04:20:57;100250.00;;;8.97;95.19
82728;BME280;72459;50.110;8.750;2023-11-19T04:23:22;100258.81;;;8.99;95.68
82728;BME280;72459;50.110;8.750;2023-11-19T04:25:49;100259.69;;;9.00;95.75
82728;BME280;72459;50.110;8.750;2023-11-19T04:28:14;100252.78;;;9.02;95.26
82728;BME280;72459;50.110;8.750;2023-11-19T04:30:40;100253.56;;;8.99;95.22
82728;BME280;72459;50.110;8.750;2023-11-19T04:33:05;100246.66;;;9.01;95.21
82728;BME280;72459;50.110;8.750;2023-11-19T04:35:31;100253.56;;;8.99;95.05
82728;BME280;72459;50.110;8.750;2023-11-19T04:37:56;100242.31;;;9.02;95.32
82728;BME280;72459;50.110;8.750;2023-11-19T04:40:23;100236.41;;;9.07;95.20
82728;BME280;72459;50.110;8.750;2023-11-19T04:42:48;100236.28;;;9.04;94.86
82728;BME280;72459;50.110;8.750;2023-11-19T04:45:14;100232.97;;;9.08;95.41
82728;BME280;72459;50.110;8.750;2023-11-19T04:47:44;100231.19;;;9.07;94.71
82728;BME280;72459;50.110;8.750;2023-11-19T04:50:10;100247.19;;;9.13;94.87
82728;BME280;72459;50.110;8.750;2023-11-19T04:52:39;100227.03;;;9.12;95.06
82728;BME280;72459;50.110;8.750;2023-11-19T04:55:10;100226.34;;;9.16;95.90
82728;BME280;72459;50.110;8.750;2023-11-19T04:57:37;100230.63;;;9.14;95.26
82728;BME280;72459;50.110;8.750;2023-11-19T05:00:04;100222.88;;;9.17;95.74
82728;BME280;72459;50.110;8.750;2023-11-19T05:02:32;100235.97;;;9.17;95.47
82728;BME280;72459;50.110;8.750;2023-11-19T05:05:00;100234.44;;;9.23;95.34
82728;BME280;72459;50.110;8.750;2023-11-19T05:07:25;100232.00;;;9.27;94.77
82728;BME280;72459;50.110;8.750;2023-11-19T05:09:51;100231.94;;;9.26;95.67
82728;BME280;72459;50.110;8.750;2023-11-19T05:12:17;100244.22;;;9.27;95.14
82728;BME280;72459;50.110;8.750;2023-11-19T05:14:43;100242.56;;;9.29;95.75
82728;BME280;72459;50.110;8.750;2023-11-19T05:17:14;100249.47;;;9.27;94.35
82728;BME280;72459;50.110;8.750;2023-11-19T05:19:39;100251.38;;;9.31;95.25
82728;BME280;72459;50.110;8.750;2023-11-19T05:22:05;100254.13;;;9.34;94.63
82728;BME280;72459;50.110;8.750;2023-11-19T05:24:31;100254.06;;;9.32;94.76
82728;BME280;72459;50.110;8.750;2023-11-19T05:26:57;100253.28;;;9.35;94.46
82728;BME280;72459;50.110;8.750;2023-11-19T05:29:25;100249.94;;;9.39;95.50
82728;BME280;72459;50.110;8.750;2023-11-19T05:31:50;100250.72;;;9.36;94.98
82728;BME280;72459;50.110;8.750;2023-11-19T05:34:15;100246.59;;;9.43;95.45
82728;BME280;72459;50.110;8.750;2023-11-19T05:36:41;100248.16;;;9.38;95.24
82728;BME280;72459;50.110;8.750;2023-11-19T05:39:07;100252.56;;;9.39;94.73
82728;BME280;72459;50.110;8.750;2023-11-19T05:41:32;100253.53;;;9.41;94.77
82728;BME280;72459;50.110;8.750;2023-11-19T05:43:57;100247.44;;;9.42;94.33
82728;BME280;72459;50.110;8.750;2023-11-19T05:46:23;100236.09;;;9.43;95.13
82728;BME280;72459;50.110;8.750;2023-11-19T05:48:50;100224.13;;;9.49;95.48
82728;BME280;72459;50.110;8.750;2023-11-19T05:51:16;100221.31;;;9.45;94.48
82728;BME280;72459;50.110;8.750;2023-11-19T05:53:42;100201.28;;;9.47;95.38
82728;BME280;72459;50.110;8.750;2023-11-19T05:56:08;100216.25;;;9.49;95.43
82728;BME280;72459;50.110;8.750;2023-11-19T05:58:35;100224.97;;;9.48;94.52
82728;BME280;72459;50.110;8.750;2023-11-19T06:01:01;100223.34;;;9.52;94.56
82728;BME280;72459;50.110;8.750;2023-11-19T06:03:28;100225.97;;;9.52;94.87
82728;BME280;72459;50.110;8.750;2023-11-19T06:05:55;100231.34;;;9.55;94.74
82728;BME280;72459;50.110;8.750;2023-11-19T06:08:20;100227.88;;;9.56;94.48
82728;BME280;72459;50.110;8.750;2023-11-19T06:10:46;100228.03;;;9.61;95.56
82728;BME280;72459;50.110;8.750;2023-11-19T06:13:16;100234.25;;;9.63;95.34
82728;BME280;72459;50.110;8.750;2023-11-19T06:15:43;100238.53;;;9.61;95.19
82728;BME280;72459;50.110;8.750;2023-11-19T06:18:09;100235.97;;;9.62;95.76
82728;BME280;72459;50.110;8.750;2023-11-19T06:20:35;100247.53;;;9.67;95.43
82728;BME280;72459;50.110;8.750;2023-11-19T06:23:00;100254.47;;;9.65;95.28
82728;BME280;72459;50.110;8.750;2023-11-19T06:25:26;100249.22;;;9.65;95.80
82728;BME280;72459;50.110;8.750;2023-11-19T06:27:52;100263.41;;;9.70;95.66
82728;BME280;72459;50.110;8.750;2023-11-19T06:30:19;100248.53;;;9.71;95.40
82728;BME280;72459;50.110;8.750;2023-11-19T06:32:45;100246.94;;;9.74;96.00
82728;BME280;72459;50.110;8.750;2023-11-19T06:35:11;100245.16;;;9.73;95.60
82728;BME280;72459;50.110;8.750;2023-11-19T06:37:40;100239.94;;;9.75;95.13
82728;BME280;72459;50.110;8.750;2023-11-19T06:40:06;100245.09;;;9.72;95.96
82728;BME280;72459;50.110;8.750;2023-11-19T06:42:35;100254.13;;;9.78;95.86
82728;BME280;72459;50.110;8.750;2023-11-19T06:45:01;100260.31;;;9.80;95.61
82728;BME280;72459;50.110;8.750;2023-11-19T06:47:27;100261.28;;;9.82;95.95
82728;BME280;72459;50.110;8.750;2023-11-19T06:49:53;100259.66;;;9.86;96.04
82728;BME280;72459;50.110;8.750;2023-11-19T06:52:19;100257.09;;;9.88;95.55
82728;BME280;72459;50.110;8.750;2023-11-19T06:54:45;100261.50;;;9.89;95.80
82728;BME280;72459;50.110;8.750;2023-11-19T06:57:13;100261.38;;;9.85;95.64
82728;BME280;72459;50.110;8.750;2023-11-19T06:59:42;100258.03;;;9.90;94.47
82728;BME280;72459;50.110;8.750;2023-11-19T07:02:07;100263.41;;;9.93;95.05
82728;BME280;72459;50.110;8.750;2023-11-19T07:04:33;100262.63;;;9.95;95.66
82728;BME280;72459;50.110;8.750;2023-11-19T07:06:58;100258.31;;;9.97;95.76
82728;BME280;72459;50.110;8.750;2023-11-19T07:09:26;100268.03;;;10.00;94.81
82728;BME280;72459;50.110;8.750;2023-11-19T07:11:52;100260.28;;;10.03;95.55
82728;BME280;72459;50.110;8.750;2023-11-19T07:14:18;100256.97;;;10.08;95.82
82728;BME280;72459;50.110;8.750;2023-11-19T07:16:45;100266.53;;;10.06;94.96
82728;BME280;72459;50.110;8.750;2023-11-19T07:19:15;100260.59;;;10.12;95.74
82728;BME280;72459;50.110;8.750;2023-11-19T07:21:42;100259.88;;;10.16;95.69
82728;BME280;72459;50.110;8.750;2023-11-19T07:24:09;100257.47;;;10.21;95.74
82728;BME280;72459;50.110;8.750;2023-11-19T07:26:42;100258.34;;;10.21;95.39
82728;BME280;72459;50.110;8.750;2023-11-19T07:29:07;100268.28;;;10.30;95.95
82728;BME280;72459;50.110;8.750;2023-11-19T07:31:33;100271.88;;;10.32;95.10
82728;BME280;72459;50.110;8.750;2023-11-19T07:33:58;100265.25;;;10.41;95.56
82728;BME280;72459;50.110;8.750;2023-11-19T07:36:23;100268.09;;;10.47;95.46
82728;BME280;72459;50.110;8.750;2023-11-19T07:38:49;100269.50;;;10.39;94.40
82728;BME280;72459;50.110;8.750;2023-11-19T07:41:15;100264.41;;;10.42;95.54
82728;BME280;72459;50.110;8.750;2023-11-19T07:43:43;100265.41;;;10.46;95.07
82728;BME280;72459;50.110;8.750;2023-11-19T07:46:13;100263.72;;;10.48;95.05
82728;BME280;72459;50.110;8.750;2023-11-19T07:48:39;100257.78;;;10.54;95.38
82728;BME280;72459;50.110;8.750;2023-11-19T07:51:05;100267.28;;;10.50;95.06
82728;BME280;72459;50.110;8.750;2023-11-19T07:53:31;100260.47;;;10.55;96.01
82728;BME280;72459;50.110;8.750;2023-11-19T07:55:58;100255.16;;;10.54;94.71
82728;BME280;72459;50.110;8.750;2023-11-19T07:58:25;100265.03;;;10.61;96.06
82728;BME280;72459;50.110;8.750;2023-11-19T08:00:50;100273.97;;;10.66;96.11
82728;BME280;72459;50.110;8.750;2023-11-19T08:03:17;100271.28;;;10.64;95.49
82728;BME280;72459;50.110;8.750;2023-11-19T08:05:42;100283.69;;;10.68;96.04
82728;BME280;72459;50.110;8.750;2023-11-19T08:08:07;100282.16;;;10.75;95.73
82728;BME280;72459;50.110;8.750;2023-11-19T08:10:33;100293.53;;;10.74;95.63
82728;BME280;72459;50.110;8.750;2023-11-19T08:12:58;100292.53;;;10.70;94.47
82728;BME280;72459;50.110;8.750;2023-11-19T08:15:24;100285.84;;;10.80;95.61
82728;BME280;72459;50.110;8.750;2023-11-19T08:17:49;100294.78;;;10.85;94.34
82728;BME280;72459;50.110;8.750;2023-11-19T08:20:15;100292.22;;;11.12;96.00
82728;BME280;72459;50.110;8.750;2023-11-19T08:22:40;100289.97;;;11.24;96.02
82728;BME280;72459;50.110;8.750;2023-11-19T08:25:06;100281.59;;;11.09;93.56
82728;BME280;72459;50.110;8.750;2023-11-19T08:27:31;100280.44;;;11.28;95.03
82728;BME280;72459;50.110;8.750;2023-11-19T08:29:57;100269.41;;;11.39;95.57
82728;BME280;72459;50.110;8.750;2023-11-19T08:32:26;100282.34;;;11.32;92.81
82728;BME280;72459;50.110;8.750;2023-11-19T08:34:51;100283.94;;;11.27;92.84
82728;BME280;72459;50.110;8.750;2023-11-19T08:37:17;100297.97;;;11.27;92.99
82728;BME280;72459;50.110;8.750;2023-11-19T08:39:48;100290.81;;;11.23;93.32
82728;BME280;72459;50.110;8.750;2023-11-19T08:42:14;100295.03;;;11.18;94.19
82728;BME280;72459;50.110;8.750;2023-11-19T08:44:39;100300.94;;;11.11;95.16
82728;BME280;72459;50.110;8.750;2023-11-19T08:47:08;100297.94;;;11.00;94.63
82728;BME280;72459;50.110;8.750;2023-11-19T08:49:34;100289.53;;;11.10;95.84
82728;BME280;72459;50.110;8.750;2023-11-19T08:51:59;100291.13;;;11.05;95.03
82728;BME280;72459;50.110;8.750;2023-11-19T08:54:25;100299.50;;;11.21;95.47
82728;BME280;72459;50.110;8.750;2023-11-19T08:56:50;100308.59;;;11.30;95.35
82728;BME280;72459;50.110;8.750;2023-11-19T08:59:16;100303.22;;;11.27;94.54
82728;BME280;72459;50.110;8.750;2023-11-19T09:01:41;100291.91;;;11.30;94.45
82728;BME280;72459;50.110;8.750;2023-11-19T09:04:07;100296.53;;;11.37;94.44
82728;BME280;72459;50.110;8.750;2023-11-19T09:06:33;100297.19;;;11.30;93.81
82728;BME280;72459;50.110;8.750;2023-11-19T09:08:58;100310.63;;;11.39;94.40
82728;BME280;72459;50.110;8.750;2023-11-19T09:11:28;100307.28;;;11.44;95.03
82728;BME280;72459;50.110;8.750;2023-11-19T09:13:53;100301.03;;;11.41;94.52
82728;BME280;72459;50.110;8.750;2023-11-19T09:16:18;100306.75;;;11.28;93.87
82728;BME280;72459;50.110;8.750;2023-11-19T09:18:44;100298.66;;;11.22;93.74
82728;BME280;72459;50.110;8.750;2023-11-19T09:21:12;100294.59;;;11.31;94.90
82728;BME280;72459;50.110;8.750;2023-11-19T09:23:38;100290.78;;;11.22;94.39
82728;BME280;72459;50.110;8.750;2023-11-19T09:26:08;100286.06;;;11.11;94.33
82728;BME280;72459;50.110;8.750;2023-11-19T09:28:35;100289.47;;;11.09;94.02
82728;BME280;72459;50.110;8.750;2023-11-19T09:31:00;100279.84;;;11.09;95.12
82728;BME280;72459;50.110;8.750;2023-11-19T09:33:29;100277.19;;;11.08;95.42
82728;BME280;72459;50.110;8.750;2023-11-19T09:35:55;100285.91;;;11.07;94.99
82728;BME280;72459;50.110;8.750;2023-11-19T09:38:20;100291.22;;;11.08;94.19
82728;BME280;72459;50.110;8.750;2023-11-19T09:40:46;100298.47;;;11.16;95.37
82728;BME280;72459;50.110;8.750;2023-11-19T09:43:14;100295.09;;;11.20;94.77
82728;BME280;72459;50.110;8.750;2023-11-19T09:45:49;100302.19;;;11.22;95.30
82728;BME280;72459;50.110;8.750;2023-11-19T09:48:18;100304.03;;;11.25;95.28
82728;BME280;72459;50.110;8.750;2023-11-19T09:50:47;100301.50;;;11.28;95.18
82728;BME280;72459;50.110;8.750;2023-11-19T09:53:14;100307.81;;;11.33;95.24
82728;BME280;72459;50.110;8.750;2023-11-19T09:55:40;100300.94;;;11.38;94.27
82728;BME280;72459;50.110;8.750;2023-11-19T09:58:07;100303.88;;;11.47;94.34
82728;BME280;72459;50.110;8.750;2023-11-19T10:00:32;100309.28;;;11.52;94.57
82728;BME280;72459;50.110;8.750;2023-11-19T10:02:59;100296.16;;;11.53;94.19
82728;BME280;72459;50.110;8.750;2023-11-19T10:05:25;100292.69;;;11.54;94.17
82728;BME280;72459;50.110;8.750;2023-11-19T10:07:51;100297.25;;;11.60;92.69
82728;BME280;72459;50.110;8.750;2023-11-19T10:10:17;100299.88;;;11.60;94.14
82728;BME280;72459;50.110;8.750;2023-11-19T10:12:47;100290.34;;;11.63;92.65
82728;BME280;72459;50.110;8.750;2023-11-19T10:15:24;100283.47;;;11.68;91.33
82728;BME280;72459;50.110;8.750;2023-11-19T10:17:51;100293.38;;;11.75;92.35
82728;BME280;72459;50.110;8.750;2023-11-19T10:20:17;100280.44;;;11.82;91.33
82728;BME280;72459;50.110;8.750;2023-11-19T10:22:42;100277.72;;;11.79;92.35
82728;BME280;72459;50.110;8.750;2023-11-19T10:25:27;100278.88;;;11.88;92.53
82728;BME280;72459;50.110;8.750;2023-11-19T10:27:54;100269.22;;;11.89;91.82
82728;BME280;72459;50.110;8.750;2023-11-19T10:30:27;100259.78;;;11.95;91.14
82728;BME280;72459;50.110;8.750;2023-11-19T10:33:08;100266.69;;;11.92;92.90
82728;BME280;72459;50.110;8.750;2023-11-19T10:38:25;100286.06;;;11.94;91.29
82728;BME280;72459;50.110;8.750;2023-11-19T10:40:51;100276.56;;;11.99;92.17
82728;BME280;72459;50.110;8.750;2023-11-19T10:43:18;100271.19;;;11.96;91.82
82728;BME280;72459;50.110;8.750;2023-11-19T10:45:44;100283.59;;;12.00;92.01
82728;BME280;72459;50.110;8.750;2023-11-19T10:48:10;100273.16;;;12.03;89.94
82728;BME280;72459;50.110;8.750;2023-11-19T10:50:39;100275.16;;;12.12;92.17
82728;BME280;72459;50.110;8.750;2023-11-19T10:53:05;100274.53;;;12.20;90.74
82728;BME280;72459;50.110;8.750;2023-11-19T10:55:33;100260.47;;;12.20;91.41
82728;BME280;72459;50.110;8.750;2023-11-19T10:58:02;100264.00;;;12.20;90.44
82728;BME280;72459;50.110;8.750;2023-11-19T11:00:52;100252.78;;;12.27;87.56
82728;BME280;72459;50.110;8.750;2023-11-19T11:03:20;100249.56;;;12.37;89.99
82728;BME280;72459;50.110;8.750;2023-11-19T11:05:54;100254.03;;;12.40;87.47
82728;BME280;72459;50.110;8.750;2023-11-19T11:08:20;100256.72;;;12.42;88.95
82728;BME280;72459;50.110;8.750;2023-11-19T11:10:55;100237.41;;;12.43;89.22
82728;BME280;72459;50.110;8.750;2023-11-19T11:13:24;100242.81;;;12.47;86.54
82728;BME280;72459;50.110;8.750;2023-11-19T11:15:51;100244.78;;;12.56;88.29
82728;BME280;72459;50.110;8.750;2023-11-19T11:18:19;100239.59;;;12.59;89.26
82728;BME280;72459;50.110;8.750;2023-11-19T11:20:46;100236.09;;;12.60;87.94
82728;BME280;72459;50.110;8.750;2023-11-19T11:23:32;100243.25;;;12.64;89.93
82728;BME280;72459;50.110;8.750;2023-11-19T11:37:18;100254.44;;;13.60;84.68
82728;BME280;72459;50.110;8.750;2023-11-19T11:39:45;100244.84;;;13.64;84.40
82728;BME280;72459;50.110;8.750;2023-11-19T11:45:07;100252.72;;;13.62;85.86
82728;BME280;72459;50.110;8.750;2023-11-19T11:50:09;100256.63;;;13.78;79.99
82728;BME280;72459;50.110;8.750;2023-11-19T11:55:28;100242.00;;;13.94;84.49
82728;BME280;72459;50.110;8.750;2023-11-19T11:57:55;100256.91;;;13.92;83.85
82728;BME280;72459;50.110;8.750;2023-11-19T12:00:30;100244.56;;;13.91;81.33
82728;BME280;72459;50.110;8.750;2023-11-19T12:03:00;100244.47;;;13.86;85.45
82728;BME280;72459;50.110;8.750;2023-11-19T12:05:26;100246.78;;;13.71;86.25
82728;BME280;72459;50.110;8.750;2023-11-19T12:07:56;100249.47;;;13.73;88.21
82728;BME280;72459;50.110;8.750;2023-11-19T12:10:25;100248.94;;;13.89;87.26
82728;BME280;72459;50.110;8.750;2023-11-19T12:12:58;100253.41;;;13.93;86.40
82728;BME280;72459;50.110;8.750;2023-11-19T12:15:24;100249.81;;;13.89;87.33
82728;BME280;72459;50.110;8.750;2023-11-19T12:17:51;100250.66;;;13.87;85.72
82728;BME280;72459;50.110;8.750;2023-11-19T12:20:18;100250.69;;;13.88;88.76
82728;BME280;72459;50.110;8.750;2023-11-19T12:22:46;100256.59;;;13.77;80.75
82728;BME280;72459;50.110;8.750;2023-11-19T12:25:14;100253.91;;;13.75;85.58
82728;BME280;72459;50.110;8.750;2023-11-19T12:27:43;100251.38;;;13.80;88.32
82728;BME280;72459;50.110;8.750;2023-11-19T12:30:09;100242.53;;;13.78;75.16
82728;BME280;72459;50.110;8.750;2023-11-19T12:32:45;100244.69;;;13.97;90.42
82728;BME280;72459;50.110;8.750;2023-11-19T12:35:11;100229.78;;;14.01;90.58
82728;BME280;72459;50.110;8.750;2023-11-19T12:40:22;100237.88;;;14.08;89.50
82728;BME280;72459;50.110;8.750;2023-11-19T12:42:49;100232.53;;;14.05;75.49
82728;BME280;72459;50.110;8.750;2023-11-19T12:45:14;100239.88;;;14.20;88.72
82728;BME280;72459;50.110;8.750;2023-11-19T12:47:41;100235.56;;;14.25;89.30
82728;BME280;72459;50.110;8.750;2023-11-19T12:50:08;100237.22;;;14.20;79.33
82728;BME280;72459;50.110;8.750;2023-11-19T12:52:35;100228.78;;;14.38;84.83
82728;BME280;72459;50.110;8.750;2023-11-19T12:55:02;100217.59;;;14.51;85.74
82728;BME280;72459;50.110;8.750;2023-11-19T12:57:40;100232.59;;;14.50;76.07
82728;BME280;72459;50.110;8.750;2023-11-19T13:00:18;100219.38;;;14.52;88.35
82728;BME280;72459;50.110;8.750;2023-11-19T13:02:54;100219.44;;;14.55;85.84
82728;BME280;72459;50.110;8.750;2023-11-19T13:05:40;100218.38;;;14.45;75.20
82728;BME280;72459;50.110;8.750;2023-11-19T13:08:07;100217.66;;;14.54;88.06
82728;BME280;72459;50.110;8.750;2023-11-19T13:10:49;100215.00;;;14.52;86.61
82728;BME280;72459;50.110;8.750;2023-11-19T13:13:15;100211.34;;;14.46;80.10
82728;BME280;72459;50.110;8.750;2023-11-19T13:15:40;100205.84;;;14.37;82.27
82728;BME280;72459;50.110;8.750;2023-11-19T13:18:06;100200.47;;;14.31;87.00
82728;BME280;72459;50.110;8.750;2023-11-19T13:20:32;100202.16;;;14.30;88.52
82728;BME280;72459;50.110;8.750;2023-11-19T13:23:02;100214.41;;;14.25;80.39